Time,TemperatureF,DewpointF,PressureIn,WindDirection,WindDirectionDegrees,WindSpeedMPH,WindSpeedGustMPH,Humidity,HourlyPrecipIn,Conditions,Clouds,dailyrainin,SoftwareType,DateUTC
2013-06-15 00:07:00,50.6,46.0,29.47,West,264,8.0,19.0,83,0.00,,,0.24,weatherlink.com 1.10,2013-06-14 23:07:00,
2013-06-15 00:22:00,50.8,46.0,29.48,WNW,299,10.0,15.0,82,0.00,,,0.24,weatherlink.com 1.10,2013-06-14 23:22:00,
2013-06-15 00:37:00,50.4,45.0,29.48,WNW,293,6.0,11.0,83,0.00,,,0.24,weatherlink.com 1.10,2013-06-14 23:37:00,
2013-06-15 00:52:00,50.1,45.0,29.49,WNW,291,5.0,10.0,83,0.00,,,0.24,weatherlink.com 1.10,2013-06-14 23:52:00,
2013-06-15 01:07:00,50.1,45.0,29.49,West,274,3.0,10.0,83,0.00,,,0.24,weatherlink.com 1.10,2013-06-15 00:07:00,
2013-06-15 01:22:00,50.1,46.0,29.50,South,189,3.0,8.0,84,0.00,,,0.24,weatherlink.com 1.10,2013-06-15 00:22:00,
2013-06-15 01:37:00,49.9,45.0,29.49,WNW,285,4.0,14.0,82,0.00,,,0.24,weatherlink.com 1.10,2013-06-15 00:37:00,
2013-06-15 01:52:00,49.8,45.0,29.50,NNW,347,2.0,9.0,82,0.00,,,0.24,weatherlink.com 1.10,2013-06-15 00:52:00,
2013-06-15 02:07:00,49.6,45.0,29.50,West,269,4.0,10.0,83,0.00,,,0.24,weatherlink.com 1.10,2013-06-15 01:07:00,
2013-06-15 02:22:00,49.6,44.0,29.50,West,271,1.0,12.0,82,0.00,,,0.24,weatherlink.com 1.10,2013-06-15 01:22:00,
2013-06-15 02:37:00,49.7,44.0,29.50,NW,316,5.0,17.0,82,0.00,,,0.24,weatherlink.com 1.10,2013-06-15 01:37:00,
2013-06-15 02:52:00,49.6,44.0,29.50,West,271,5.0,14.0,82,0.00,,,0.24,weatherlink.com 1.10,2013-06-15 01:52:00,
2013-06-15 03:07:00,49.5,44.0,29.50,West,271,4.0,12.0,82,0.00,,,0.24,weatherlink.com 1.10,2013-06-15 02:07:00,
2013-06-15 03:22:00,49.3,44.0,29.50,North,352,6.0,13.0,82,0.00,,,0.24,weatherlink.com 1.10,2013-06-15 02:22:00,
2013-06-15 03:37:00,49.3,43.0,29.50,West,270,4.0,14.0,80,0.00,,,0.24,weatherlink.com 1.10,2013-06-15 02:37:00,
2013-06-15 03:52:00,49.0,43.0,29.50,WNW,293,8.0,15.0,80,0.00,,,0.00,weatherlink.com 1.10,2013-06-15 02:52:00,
2013-06-15 04:07:00,48.8,43.0,29.50,West,274,11.0,17.0,80,0.00,,,0.00,weatherlink.com 1.10,2013-06-15 03:07:00,
2013-06-15 04:22:00,48.4,43.0,29.50,SW,226,4.0,12.0,81,0.00,,,0.00,weatherlink.com 1.10,2013-06-15 03:22:00,
2013-06-15 04:37:00,48.1,43.0,29.50,SW,225,8.0,10.0,81,0.00,,,0.00,weatherlink.com 1.10,2013-06-15 03:37:00,
2013-06-15 04:52:00,48.0,42.0,29.50,West,263,2.0,10.0,80,0.00,,,0.00,weatherlink.com 1.10,2013-06-15 03:52:00,
2013-06-15 05:07:00,48.1,42.0,29.51,West,262,11.0,11.0,80,0.00,,,0.00,weatherlink.com 1.10,2013-06-15 04:07:00,
2013-06-15 05:22:00,48.2,42.0,29.51,SW,232,4.0,9.0,79,0.00,,,0.00,weatherlink.com 1.10,2013-06-15 04:22:00,
2013-06-15 05:37:00,48.1,42.0,29.51,NE,39,4.0,12.0,79,0.00,,,0.00,weatherlink.com 1.10,2013-06-15 04:37:00,
2013-06-15 05:52:00,48.3,42.0,29.51,SSW,210,6.0,11.0,79,0.00,,,0.00,weatherlink.com 1.10,2013-06-15 04:52:00,
2013-06-15 06:07:00,49.0,42.0,29.52,West,279,3.0,11.0,78,0.00,,,0.00,weatherlink.com 1.10,2013-06-15 05:07:00,
2013-06-15 06:22:00,49.3,42.0,29.52,West,278,3.0,11.0,77,0.00,,,0.00,weatherlink.com 1.10,2013-06-15 05:22:00,
2013-06-15 06:38:00,49.8,43.0,29.52,NNW,345,1.0,9.0,77,0.00,,,0.00,weatherlink.com 1.10,2013-06-15 05:38:00,
2013-06-15 06:53:00,50.3,43.0,29.52,NW,307,4.0,11.0,75,0.00,,,0.00,weatherlink.com 1.10,2013-06-15 05:53:00,
2013-06-15 07:08:00,50.4,43.0,29.53,West,278,5.0,15.0,75,0.00,,,0.00,weatherlink.com 1.10,2013-06-15 06:08:00,
2013-06-15 07:23:00,50.6,43.0,29.52,West,272,3.0,15.0,75,0.00,,,0.00,weatherlink.com 1.10,2013-06-15 06:23:00,
2013-06-15 07:38:00,51.3,44.0,29.53,WNW,295,1.0,11.0,75,0.00,,,0.00,weatherlink.com 1.10,2013-06-15 06:38:00,
2013-06-15 07:53:00,51.6,44.0,29.53,WSW,248,8.0,11.0,74,0.00,,,0.00,weatherlink.com 1.10,2013-06-15 06:53:00,
2013-06-15 08:08:00,51.8,44.0,29.53,WNW,293,4.0,14.0,74,0.00,,,0.00,weatherlink.com 1.10,2013-06-15 07:08:00,
2013-06-15 08:23:00,52.3,44.0,29.53,WSW,243,2.0,12.0,74,0.00,,,0.00,weatherlink.com 1.10,2013-06-15 07:23:00,
2013-06-15 08:38:00,52.8,44.0,29.53,West,281,8.0,14.0,73,0.00,,,0.00,weatherlink.com 1.10,2013-06-15 07:38:00,
2013-06-15 08:53:00,53.0,44.0,29.53,WNW,295,8.0,14.0,72,0.00,,,0.00,weatherlink.com 1.10,2013-06-15 07:53:00,
2013-06-15 09:08:00,53.7,45.0,29.53,SW,227,5.0,14.0,72,0.00,,,0.00,weatherlink.com 1.10,2013-06-15 08:08:00,
2013-06-15 09:23:00,54.2,45.0,29.54,WNW,293,1.0,16.0,72,0.00,,,0.00,weatherlink.com 1.10,2013-06-15 08:23:00,
2013-06-15 09:38:00,55.1,45.0,29.54,WNW,283,7.0,12.0,69,0.00,,,0.00,weatherlink.com 1.10,2013-06-15 08:38:00,
2013-06-15 09:53:00,55.9,45.0,29.54,NNE,17,7.0,13.0,66,0.00,,,0.00,weatherlink.com 1.10,2013-06-15 08:53:00,
2013-06-15 10:08:00,55.9,44.0,29.54,WNW,283,4.0,15.0,65,0.00,,,0.00,weatherlink.com 1.10,2013-06-15 09:08:00,
2013-06-15 10:23:00,56.4,44.0,29.53,West,269,5.0,17.0,64,0.00,,,0.00,weatherlink.com 1.10,2013-06-15 09:23:00,
2013-06-15 10:38:00,57.2,45.0,29.54,NW,306,3.0,15.0,63,0.00,,,0.00,weatherlink.com 1.10,2013-06-15 09:38:00,
2013-06-15 10:53:00,57.9,44.0,29.54,West,275,5.0,14.0,61,0.00,,,0.00,weatherlink.com 1.10,2013-06-15 09:53:00,
2013-06-15 11:08:00,57.9,45.0,29.54,West,259,3.0,16.0,62,0.00,,,0.00,weatherlink.com 1.10,2013-06-15 10:08:00,
2013-06-15 11:23:00,57.7,45.0,29.54,West,269,4.0,17.0,62,0.00,,,0.00,weatherlink.com 1.10,2013-06-15 10:23:00,
2013-06-15 11:38:00,58.4,45.0,29.54,West,281,13.0,13.0,62,0.00,,,0.00,weatherlink.com 1.10,2013-06-15 10:38:00,
2013-06-15 11:53:00,59.0,45.0,29.54,WSW,251,4.0,16.0,61,0.00,,,0.00,weatherlink.com 1.10,2013-06-15 10:53:00,
2013-06-15 12:08:00,59.1,46.0,29.54,WSW,256,2.0,16.0,62,0.00,,,0.00,weatherlink.com 1.10,2013-06-15 11:08:00,
2013-06-15 12:23:00,59.5,46.0,29.54,West,278,7.0,13.0,62,0.00,,,0.00,weatherlink.com 1.10,2013-06-15 11:23:00,
2013-06-15 12:38:00,59.2,46.0,29.54,SW,214,6.0,13.0,62,0.00,,,0.00,weatherlink.com 1.10,2013-06-15 11:38:00,
2013-06-15 12:53:00,60.1,45.0,29.54,SE,135,0.0,16.0,58,0.00,,,0.00,weatherlink.com 1.10,2013-06-15 11:53:00,
2013-06-15 13:08:00,60.6,46.0,29.54,West,269,0.0,17.0,60,0.00,,,0.00,weatherlink.com 1.10,2013-06-15 12:08:00,
2013-06-15 13:23:00,61.3,46.0,29.54,West,277,5.0,12.0,58,0.00,,,0.00,weatherlink.com 1.10,2013-06-15 12:23:00,
2013-06-15 13:38:00,60.5,47.0,29.54,SW,233,4.0,12.0,61,0.00,,,0.00,weatherlink.com 1.10,2013-06-15 12:38:00,
2013-06-15 13:53:00,61.9,47.0,29.54,NNW,335,7.0,11.0,59,0.00,,,0.00,weatherlink.com 1.10,2013-06-15 12:53:00,
2013-06-15 14:08:00,61.4,48.0,29.54,West,273,5.0,15.0,62,0.00,,,0.00,weatherlink.com 1.10,2013-06-15 13:08:00,
2013-06-15 14:24:00,62.5,48.0,29.55,NW,311,10.0,13.0,59,0.00,,,0.00,weatherlink.com 1.10,2013-06-15 13:24:00,
2013-06-15 14:39:00,62.1,48.0,29.54,WNW,288,8.0,15.0,61,0.00,,,0.00,weatherlink.com 1.10,2013-06-15 13:39:00,
2013-06-15 14:54:00,62.5,48.0,29.54,WNW,291,5.0,16.0,60,0.00,,,0.00,weatherlink.com 1.10,2013-06-15 13:54:00,
2013-06-15 15:09:00,62.8,48.0,29.54,West,263,6.0,13.0,58,0.00,,,0.00,weatherlink.com 1.10,2013-06-15 14:09:00,
2013-06-15 15:24:00,63.0,48.0,29.54,WSW,243,5.0,10.0,59,0.00,,,0.00,weatherlink.com 1.10,2013-06-15 14:24:00,
2013-06-15 15:39:00,65.1,46.0,29.54,West,277,6.0,17.0,51,0.00,,,0.00,weatherlink.com 1.10,2013-06-15 14:39:00,
2013-06-15 15:54:00,65.0,44.0,29.54,West,274,7.0,21.0,46,0.00,,,0.00,weatherlink.com 1.10,2013-06-15 14:54:00,
2013-06-15 16:09:00,65.7,44.0,29.55,SW,222,14.0,19.0,45,0.00,,,0.00,weatherlink.com 1.10,2013-06-15 15:09:00,
2013-06-15 16:24:00,65.5,45.0,29.55,West,274,3.0,16.0,48,0.00,,,0.00,weatherlink.com 1.10,2013-06-15 15:24:00,
2013-06-15 16:39:00,64.7,45.0,29.55,West,279,8.0,16.0,50,0.00,,,0.00,weatherlink.com 1.10,2013-06-15 15:39:00,
2013-06-15 16:54:00,63.0,49.0,29.56,West,280,7.0,19.0,61,0.00,,,0.00,weatherlink.com 1.10,2013-06-15 15:54:00,
2013-06-15 17:09:00,63.4,49.0,29.55,WNW,295,3.0,19.0,60,0.00,,,0.00,weatherlink.com 1.10,2013-06-15 16:09:00,
2013-06-15 17:24:00,64.9,49.0,29.55,WNW,298,5.0,13.0,57,0.00,,,0.00,weatherlink.com 1.10,2013-06-15 16:24:00,
2013-06-15 17:39:00,64.2,48.0,29.55,WSW,255,9.0,14.0,56,0.00,,,0.00,weatherlink.com 1.10,2013-06-15 16:39:00,
2013-06-15 17:54:00,62.7,49.0,29.56,SW,231,5.0,21.0,61,0.00,,,0.00,weatherlink.com 1.10,2013-06-15 16:54:00,
2013-06-15 18:09:00,63.1,51.0,29.56,West,262,9.0,17.0,65,0.00,,,0.00,weatherlink.com 1.10,2013-06-15 17:09:00,
2013-06-15 18:24:00,62.6,52.0,29.56,West,271,4.0,20.0,68,0.00,,,0.00,weatherlink.com 1.10,2013-06-15 17:24:00,
2013-06-15 18:39:00,62.3,52.0,29.56,West,271,10.0,17.0,69,0.00,,,0.00,weatherlink.com 1.10,2013-06-15 17:39:00,
2013-06-15 18:54:00,62.0,51.0,29.57,West,259,13.0,21.0,68,0.00,,,0.00,weatherlink.com 1.10,2013-06-15 17:54:00,
2013-06-15 19:09:00,62.1,51.0,29.58,West,271,9.0,21.0,67,0.00,,,0.00,weatherlink.com 1.10,2013-06-15 18:09:00,
2013-06-15 19:24:00,61.4,51.0,29.58,WSW,242,9.0,13.0,68,0.00,,,0.00,weatherlink.com 1.10,2013-06-15 18:24:00,
2013-06-15 19:39:00,59.7,51.0,29.59,WSW,250,9.0,20.0,73,0.00,,,0.00,weatherlink.com 1.10,2013-06-15 18:39:00,
2013-06-15 19:54:00,59.2,52.0,29.59,West,273,2.0,15.0,76,0.00,,,0.00,weatherlink.com 1.10,2013-06-15 18:54:00,
2013-06-15 20:09:00,59.7,51.0,29.60,WSW,245,7.0,13.0,74,0.00,,,0.00,weatherlink.com 1.10,2013-06-15 19:09:00,
2013-06-15 20:24:00,59.9,51.0,29.60,NW,316,7.0,17.0,72,0.00,,,0.00,weatherlink.com 1.10,2013-06-15 19:24:00,
2013-06-15 20:39:00,59.7,50.0,29.61,WSW,258,6.0,16.0,71,0.00,,,0.00,weatherlink.com 1.10,2013-06-15 19:39:00,
2013-06-15 20:54:00,59.0,50.0,29.62,WNW,284,8.0,18.0,73,0.00,,,0.00,weatherlink.com 1.10,2013-06-15 19:54:00,
2013-06-15 21:09:00,58.2,50.0,29.63,WSW,256,6.0,20.0,75,0.00,,,0.00,weatherlink.com 1.10,2013-06-15 20:09:00,
2013-06-15 21:24:00,57.6,50.0,29.64,West,273,6.0,15.0,77,0.00,,,0.00,weatherlink.com 1.10,2013-06-15 20:24:00,
2013-06-15 21:39:00,56.8,50.0,29.65,West,262,6.0,15.0,78,0.00,,,0.00,weatherlink.com 1.10,2013-06-15 20:39:00,
2013-06-15 21:54:00,56.5,50.0,29.66,WSW,255,11.0,17.0,80,0.00,,,0.00,weatherlink.com 1.10,2013-06-15 20:54:00,
2013-06-15 22:09:00,56.3,50.0,29.66,WSW,242,4.0,16.0,80,0.00,,,0.00,weatherlink.com 1.10,2013-06-15 21:09:00,
2013-06-15 22:24:00,55.8,50.0,29.67,WNW,293,7.0,15.0,81,0.00,,,0.00,weatherlink.com 1.10,2013-06-15 21:24:00,
2013-06-15 22:39:00,55.3,50.0,29.68,WNW,301,5.0,15.0,83,0.00,,,0.00,weatherlink.com 1.10,2013-06-15 21:39:00,
2013-06-15 22:54:00,55.0,50.0,29.68,NNW,340,3.0,12.0,84,0.00,,,0.00,weatherlink.com 1.10,2013-06-15 21:54:00,
2013-06-15 23:09:00,54.7,50.0,29.69,NW,306,5.0,14.0,85,0.00,,,0.00,weatherlink.com 1.10,2013-06-15 22:09:00,
2013-06-15 23:24:00,54.4,50.0,29.69,WSW,253,4.0,15.0,86,0.00,,,0.00,weatherlink.com 1.10,2013-06-15 22:24:00,
2013-06-15 23:39:00,54.3,50.0,29.70,WNW,295,3.0,13.0,85,0.00,,,0.00,weatherlink.com 1.10,2013-06-15 22:39:00,
2013-06-15 23:54:00,54.1,50.0,29.70,WNW,302,1.0,9.0,86,0.00,,,0.00,weatherlink.com 1.10,2013-06-15 22:54:00,